CYPT weather

Pelee Island Airport
Pelee Island, Ontario, Canada

Public forecast

Using degrees Celsius for public forecast. Weather courtesy of forecast.io.

METAR (pilot weather report)

Closest report is Carl R Keller Field, 18.0 nm (33.4 km) SSW. Retrieved 2019/05/20 01:35 UTC (23 minutes ago):

KPCW 200135Z AUTO 21013G24KT 10SM FEW110 18/16 A2973 RMK AO2

TAF (pilot weather forecast)

Forecast is more than 12 hours old.

Closest forecast is Windsor Airport, 32.2 nm (59.6 km) NNW. Retrieved 2019/05/19 00:39 UTC (1 day ago):

TAF CYQG 192338Z 2000/2024 20015G25KT P6SM SCT020 BKN060 TEMPO 2001/2003 5SM -SHRA BR OVC020 PROB30 2001/2003 VRB20G38KT 11/2SM +TSRA BR BKN020 BKN050CB FM200300 22007KT P6SM SCT015 BKN040 TEMPO 2003/2009 FEW008 BKN015 FM200900 25010G20KT P6SM BKN020 BKN050 FM201200 27012G25KT P6SM BKN020 FM201700 27012G22KT P6SM BKN025 BECMG 2020/2022 29010G20KT RMK FCST BASED ON AUTO OBS. NXT FCST BY 200600Z